sensor_id;sensor_type;location;lat;lon;timestamp;temperature;humidity
31837;DHT22;18401;49.344;6.240;2023-02-15T00:00:11;-1.30;99.90
31837;DHT22;18401;49.344;6.240;2023-02-15T00:02:36;-1.60;99.90
31837;DHT22;18401;49.344;6.240;2023-02-15T00:05:02;-1.80;99.90
31837;DHT22;18401;49.344;6.240;2023-02-15T00:07:28;-2.10;99.90
31837;DHT22;18401;49.344;6.240;2023-02-15T00:09:53;-2.20;99.90
31837;DHT22;18401;49.344;6.240;2023-02-15T00:12:19;-2.30;99.90
31837;DHT22;18401;49.344;6.240;2023-02-15T00:14:45;-2.30;99.90
31837;DHT22;18401;49.344;6.240;2023-02-15T00:17:10;-2.40;99.90
31837;DHT22;18401;49.344;6.240;2023-02-15T00:19:36;-2.40;99.90
31837;DHT22;18401;49.344;6.240;2023-02-15T00:22:02;-2.20;99.90
31837;DHT22;18401;49.344;6.240;2023-02-15T00:24:28;-2.00;99.90
31837;DHT22;18401;49.344;6.240;2023-02-15T00:26:53;-1.90;99.90
31837;DHT22;18401;49.344;6.240;2023-02-15T00:29:19;-1.90;99.90
31837;DHT22;18401;49.344;6.240;2023-02-15T00:31:46;-1.90;99.90
31837;DHT22;18401;49.344;6.240;2023-02-15T00:34:17;-1.90;99.90
31837;DHT22;18401;49.344;6.240;2023-02-15T00:36:43;-1.90;99.90
31837;DHT22;18401;49.344;6.240;2023-02-15T00:39:09;-2.00;99.90
31837;DHT22;18401;49.344;6.240;2023-02-15T00:41:35;-2.00;99.90
31837;DHT22;18401;49.344;6.240;2023-02-15T00:44:02;-2.00;99.90
31837;DHT22;18401;49.344;6.240;2023-02-15T00:46:28;-2.00;99.90
31837;DHT22;18401;49.344;6.240;2023-02-15T00:48:54;-2.00;99.90
31837;DHT22;18401;49.344;6.240;2023-02-15T00:51:19;-1.90;99.90
31837;DHT22;18401;49.344;6.240;2023-02-15T00:53:48;-2.00;99.90
31837;DHT22;18401;49.344;6.240;2023-02-15T00:56:13;-2.30;99.90
31837;DHT22;18401;49.344;6.240;2023-02-15T00:58:39;-2.40;99.90
31837;DHT22;18401;49.344;6.240;2023-02-15T01:01:07;-2.60;99.90
31837;DHT22;18401;49.344;6.240;2023-02-15T01:03:34;-2.80;99.90
31837;DHT22;18401;49.344;6.240;2023-02-15T01:06:00;-2.90;99.90
31837;DHT22;18401;49.344;6.240;2023-02-15T01:08:26;-2.90;99.90
31837;DHT22;18401;49.344;6.240;2023-02-15T01:10:52;-3.00;99.90
31837;DHT22;18401;49.344;6.240;2023-02-15T01:13:17;-3.00;99.90
31837;DHT22;18401;49.344;6.240;2023-02-15T01:15:44;-3.00;99.90
31837;DHT22;18401;49.344;6.240;2023-02-15T01:18:10;-2.90;99.90
31837;DHT22;18401;49.344;6.240;2023-02-15T01:20:39;-3.00;99.90
31837;DHT22;18401;49.344;6.240;2023-02-15T01:23:07;-3.00;99.90
31837;DHT22;18401;49.344;6.240;2023-02-15T01:25:34;-3.00;99.90
31837;DHT22;18401;49.344;6.240;2023-02-15T01:28:00;-3.10;99.90
31837;DHT22;18401;49.344;6.240;2023-02-15T01:30:26;-3.00;99.90
31837;DHT22;18401;49.344;6.240;2023-02-15T01:32:51;-3.10;99.90
31837;DHT22;18401;49.344;6.240;2023-02-15T01:35:17;-3.00;99.90
31837;DHT22;18401;49.344;6.240;2023-02-15T01:37:43;-2.90;99.90
31837;DHT22;18401;49.344;6.240;2023-02-15T01:40:12;-2.90;99.90
31837;DHT22;18401;49.344;6.240;2023-02-15T01:42:38;-3.00;99.90
31837;DHT22;18401;49.344;6.240;2023-02-15T01:45:24;-3.00;99.90
31837;DHT22;18401;49.344;6.240;2023-02-15T01:47:56;-3.00;99.90
31837;DHT22;18401;49.344;6.240;2023-02-15T01:55:32;-3.00;99.90
31837;DHT22;18401;49.344;6.240;2023-02-15T01:57:59;-2.90;99.90
31837;DHT22;18401;49.344;6.240;2023-02-15T02:00:25;-2.90;99.90
31837;DHT22;18401;49.344;6.240;2023-02-15T02:02:55;-2.80;99.90
31837;DHT22;18401;49.344;6.240;2023-02-15T02:05:22;-2.80;99.90
31837;DHT22;18401;49.344;6.240;2023-02-15T02:07:50;-2.80;99.90
31837;DHT22;18401;49.344;6.240;2023-02-15T02:10:20;-3.00;99.90
31837;DHT22;18401;49.344;6.240;2023-02-15T02:12:47;-3.10;99.90
31837;DHT22;18401;49.344;6.240;2023-02-15T02:15:15;-3.20;99.90
31837;DHT22;18401;49.344;6.240;2023-02-15T02:20:30;-3.30;99.90
31837;DHT22;18401;49.344;6.240;2023-02-15T02:34:05;-3.00;99.90
31837;DHT22;18401;49.344;6.240;2023-02-15T02:36:41;-3.00;99.90
31837;DHT22;18401;49.344;6.240;2023-02-15T02:44:16;-2.90;99.90
31837;DHT22;18401;49.344;6.240;2023-02-15T02:46:46;-3.00;99.90
31837;DHT22;18401;49.344;6.240;2023-02-15T02:49:13;-3.00;99.90
31837;DHT22;18401;49.344;6.240;2023-02-15T02:51:39;-3.10;99.90
31837;DHT22;18401;49.344;6.240;2023-02-15T02:54:06;-3.20;99.90
31837;DHT22;18401;49.344;6.240;2023-02-15T02:56:59;-3.30;99.90
31837;DHT22;18401;49.344;6.240;2023-02-15T02:59:32;-3.50;99.90
31837;DHT22;18401;49.344;6.240;2023-02-15T03:02:09;-3.60;99.90
31837;DHT22;18401;49.344;6.240;2023-02-15T03:04:42;-3.70;99.90
31837;DHT22;18401;49.344;6.240;2023-02-15T03:07:12;-3.80;99.90
31837;DHT22;18401;49.344;6.240;2023-02-15T03:09:44;-3.70;99.90
31837;DHT22;18401;49.344;6.240;2023-02-15T03:12:21;-3.60;99.90
31837;DHT22;18401;49.344;6.240;2023-02-15T03:14:53;-3.30;99.90
31837;DHT22;18401;49.344;6.240;2023-02-15T03:17:23;-3.30;99.90
31837;DHT22;18401;49.344;6.240;2023-02-15T03:19:53;-3.30;99.90
31837;DHT22;18401;49.344;6.240;2023-02-15T03:22:29;-3.20;99.90
31837;DHT22;18401;49.344;6.240;2023-02-15T03:27:45;-3.10;99.90
31837;DHT22;18401;49.344;6.240;2023-02-15T03:30:13;-3.10;99.90
31837;DHT22;18401;49.344;6.240;2023-02-15T03:32:41;-3.10;99.90
31837;DHT22;18401;49.344;6.240;2023-02-15T03:35:09;-3.00;99.90
31837;DHT22;18401;49.344;6.240;2023-02-15T03:37:41;-2.90;99.90
31837;DHT22;18401;49.344;6.240;2023-02-15T03:40:11;-2.60;99.90
31837;DHT22;18401;49.344;6.240;2023-02-15T03:43:17;-2.50;99.90
31837;DHT22;18401;49.344;6.240;2023-02-15T03:45:47;-2.10;99.90
31837;DHT22;18401;49.344;6.240;2023-02-15T03:48:35;-1.90;99.90
31837;DHT22;18401;49.344;6.240;2023-02-15T03:51:09;-1.70;99.90
31837;DHT22;18401;49.344;6.240;2023-02-15T03:53:57;-1.60;99.90
31837;DHT22;18401;49.344;6.240;2023-02-15T03:56:24;-1.60;99.90
31837;DHT22;18401;49.344;6.240;2023-02-15T03:58:50;-1.60;99.90
31837;DHT22;18401;49.344;6.240;2023-02-15T04:01:38;-1.50;99.90
31837;DHT22;18401;49.344;6.240;2023-02-15T04:04:37;-1.60;99.90
31837;DHT22;18401;49.344;6.240;2023-02-15T04:07:06;-1.60;99.90
31837;DHT22;18401;49.344;6.240;2023-02-15T04:09:32;-1.60;99.90
31837;DHT22;18401;49.344;6.240;2023-02-15T04:12:16;-1.60;99.90
31837;DHT22;18401;49.344;6.240;2023-02-15T04:14:42;-1.50;99.90
31837;DHT22;18401;49.344;6.240;2023-02-15T04:17:43;-1.50;99.90
31837;DHT22;18401;49.344;6.240;2023-02-15T04:20:09;-1.40;99.90
31837;DHT22;18401;49.344;6.240;2023-02-15T04:22:53;-1.30;99.90
31837;DHT22;18401;49.344;6.240;2023-02-15T04:25:37;-1.30;99.90
31837;DHT22;18401;49.344;6.240;2023-02-15T04:28:03;-1.20;99.90
31837;DHT22;18401;49.344;6.240;2023-02-15T04:30:29;-1.20;99.90
31837;DHT22;18401;49.344;6.240;2023-02-15T04:32:54;-1.10;99.90
31837;DHT22;18401;49.344;6.240;2023-02-15T04:35:22;-1.10;99.90
31837;DHT22;18401;49.344;6.240;2023-02-15T04:37:48;-1.00;99.90
31837;DHT22;18401;49.344;6.240;2023-02-15T04:40:14;-1.10;99.90
31837;DHT22;18401;49.344;6.240;2023-02-15T04:42:40;-1.00;99.90
31837;DHT22;18401;49.344;6.240;2023-02-15T04:45:06;-1.00;99.90
31837;DHT22;18401;49.344;6.240;2023-02-15T04:47:32;-1.00;99.90
31837;DHT22;18401;49.344;6.240;2023-02-15T04:49:58;-1.00;99.90
31837;DHT22;18401;49.344;6.240;2023-02-15T04:52:23;-1.00;99.90
31837;DHT22;18401;49.344;6.240;2023-02-15T04:54:49;-0.90;99.90
31837;DHT22;18401;49.344;6.240;2023-02-15T04:57:15;-0.80;99.90
31837;DHT22;18401;49.344;6.240;2023-02-15T04:59:40;-0.90;99.90
31837;DHT22;18401;49.344;6.240;2023-02-15T05:02:06;-0.90;99.90
31837;DHT22;18401;49.344;6.240;2023-02-15T05:04:32;-0.80;99.90
31837;DHT22;18401;49.344;6.240;2023-02-15T05:06:58;-0.80;99.90
31837;DHT22;18401;49.344;6.240;2023-02-15T05:09:23;-0.80;99.90
31837;DHT22;18401;49.344;6.240;2023-02-15T05:11:49;-0.70;99.90
31837;DHT22;18401;49.344;6.240;2023-02-15T05:14:15;-0.80;99.90
31837;DHT22;18401;49.344;6.240;2023-02-15T05:16:40;-0.80;99.90
31837;DHT22;18401;49.344;6.240;2023-02-15T05:19:06;-0.80;99.90
31837;DHT22;18401;49.344;6.240;2023-02-15T05:21:32;-0.80;99.90
31837;DHT22;18401;49.344;6.240;2023-02-15T05:23:58;-0.70;99.90
31837;DHT22;18401;49.344;6.240;2023-02-15T05:26:24;-0.70;99.90
31837;DHT22;18401;49.344;6.240;2023-02-15T05:29:09;-0.70;99.90
31837;DHT22;18401;49.344;6.240;2023-02-15T05:31:35;-0.50;99.90
31837;DHT22;18401;49.344;6.240;2023-02-15T05:34:02;-0.60;99.90
31837;DHT22;18401;49.344;6.240;2023-02-15T05:36:28;-0.50;99.90
31837;DHT22;18401;49.344;6.240;2023-02-15T05:38:54;-0.40;99.90
31837;DHT22;18401;49.344;6.240;2023-02-15T05:41:20;-0.50;99.90
31837;DHT22;18401;49.344;6.240;2023-02-15T05:43:45;-0.30;99.90
31837;DHT22;18401;49.344;6.240;2023-02-15T05:46:11;-0.40;99.90
31837;DHT22;18401;49.344;6.240;2023-02-15T05:48:37;-0.30;99.90
31837;DHT22;18401;49.344;6.240;2023-02-15T05:51:08;-0.30;99.90
31837;DHT22;18401;49.344;6.240;2023-02-15T05:53:36;-0.30;99.90
31837;DHT22;18401;49.344;6.240;2023-02-15T05:56:03;-0.30;99.90
31837;DHT22;18401;49.344;6.240;2023-02-15T05:58:32;-0.20;99.90
31837;DHT22;18401;49.344;6.240;2023-02-15T06:00:59;-0.20;99.90
31837;DHT22;18401;49.344;6.240;2023-02-15T06:03:25;-0.20;99.90
31837;DHT22;18401;49.344;6.240;2023-02-15T06:05:52;-0.20;99.90
31837;DHT22;18401;49.344;6.240;2023-02-15T06:08:18;-0.20;99.90
31837;DHT22;18401;49.344;6.240;2023-02-15T06:10:45;-0.10;99.90
31837;DHT22;18401;49.344;6.240;2023-02-15T06:13:11;-0.10;99.90
31837;DHT22;18401;49.344;6.240;2023-02-15T06:15:37;0.00;99.90
31837;DHT22;18401;49.344;6.240;2023-02-15T06:18:03;0.00;99.90
31837;DHT22;18401;49.344;6.240;2023-02-15T06:20:29;-0.10;99.90
31837;DHT22;18401;49.344;6.240;2023-02-15T06:22:54;0.10;99.90
31837;DHT22;18401;49.344;6.240;2023-02-15T06:25:20;0.00;99.90
31837;DHT22;18401;49.344;6.240;2023-02-15T06:27:45;0.00;99.90
31837;DHT22;18401;49.344;6.240;2023-02-15T06:30:12;0.00;99.90
31837;DHT22;18401;49.344;6.240;2023-02-15T06:32:37;0.00;99.90
31837;DHT22;18401;49.344;6.240;2023-02-15T06:35:04;0.10;99.90
31837;DHT22;18401;49.344;6.240;2023-02-15T06:37:29;0.10;99.90
31837;DHT22;18401;49.344;6.240;2023-02-15T06:39:55;0.00;99.90
31837;DHT22;18401;49.344;6.240;2023-02-15T06:42:22;0.10;99.90
31837;DHT22;18401;49.344;6.240;2023-02-15T06:44:47;0.00;99.90
31837;DHT22;18401;49.344;6.240;2023-02-15T06:47:13;0.20;99.90
31837;DHT22;18401;49.344;6.240;2023-02-15T06:49:39;0.10;99.90
31837;DHT22;18401;49.344;6.240;2023-02-15T06:52:05;0.20;99.90
31837;DHT22;18401;49.344;6.240;2023-02-15T06:54:30;0.10;99.90
31837;DHT22;18401;49.344;6.240;2023-02-15T06:56:56;0.10;99.90
31837;DHT22;18401;49.344;6.240;2023-02-15T06:59:22;0.20;99.90
31837;DHT22;18401;49.344;6.240;2023-02-15T07:01:48;0.10;99.90
31837;DHT22;18401;49.344;6.240;2023-02-15T07:04:14;0.00;99.90
31837;DHT22;18401;49.344;6.240;2023-02-15T07:06:40;0.00;99.90
31837;DHT22;18401;49.344;6.240;2023-02-15T07:09:06;0.10;99.90
31837;DHT22;18401;49.344;6.240;2023-02-15T07:11:31;0.10;99.90
31837;DHT22;18401;49.344;6.240;2023-02-15T07:14:15;0.10;99.90
31837;DHT22;18401;49.344;6.240;2023-02-15T07:16:41;0.20;99.90
31837;DHT22;18401;49.344;6.240;2023-02-15T07:19:07;0.10;99.90
31837;DHT22;18401;49.344;6.240;2023-02-15T07:21:34;0.20;99.90
31837;DHT22;18401;49.344;6.240;2023-02-15T07:23:59;0.20;99.90
31837;DHT22;18401;49.344;6.240;2023-02-15T07:26:25;0.10;99.90
31837;DHT22;18401;49.344;6.240;2023-02-15T07:28:51;0.20;99.90
31837;DHT22;18401;49.344;6.240;2023-02-15T07:31:17;0.20;99.90
31837;DHT22;18401;49.344;6.240;2023-02-15T07:33:42;0.20;99.90
31837;DHT22;18401;49.344;6.240;2023-02-15T07:36:09;0.20;99.90
31837;DHT22;18401;49.344;6.240;2023-02-15T07:38:38;0.30;99.90
31837;DHT22;18401;49.344;6.240;2023-02-15T07:41:07;0.20;99.90
31837;DHT22;18401;49.344;6.240;2023-02-15T07:43:34;0.20;99.90
31837;DHT22;18401;49.344;6.240;2023-02-15T07:46:03;0.30;99.90
31837;DHT22;18401;49.344;6.240;2023-02-15T07:48:29;0.40;99.90
31837;DHT22;18401;49.344;6.240;2023-02-15T07:50:58;0.40;99.90
31837;DHT22;18401;49.344;6.240;2023-02-15T07:53:23;0.30;99.90
31837;DHT22;18401;49.344;6.240;2023-02-15T07:55:49;0.30;99.90
31837;DHT22;18401;49.344;6.240;2023-02-15T07:58:15;0.30;99.90
31837;DHT22;18401;49.344;6.240;2023-02-15T08:00:40;0.40;99.90
31837;DHT22;18401;49.344;6.240;2023-02-15T08:03:25;0.50;99.90
31837;DHT22;18401;49.344;6.240;2023-02-15T08:05:58;0.40;99.90
31837;DHT22;18401;49.344;6.240;2023-02-15T08:08:25;0.50;99.90
31837;DHT22;18401;49.344;6.240;2023-02-15T08:16:47;0.60;99.90
31837;DHT22;18401;49.344;6.240;2023-02-15T08:21:54;0.60;99.90
31837;DHT22;18401;49.344;6.240;2023-02-15T08:24:23;0.70;99.90
31837;DHT22;18401;49.344;6.240;2023-02-15T08:26:49;0.80;99.90
31837;DHT22;18401;49.344;6.240;2023-02-15T08:29:16;0.60;99.90
31837;DHT22;18401;49.344;6.240;2023-02-15T08:31:43;0.60;99.90
31837;DHT22;18401;49.344;6.240;2023-02-15T08:34:11;0.60;99.90
31837;DHT22;18401;49.344;6.240;2023-02-15T08:36:38;0.60;99.90
31837;DHT22;18401;49.344;6.240;2023-02-15T08:39:05;0.60;99.90
31837;DHT22;18401;49.344;6.240;2023-02-15T08:41:35;0.60;99.90
31837;DHT22;18401;49.344;6.240;2023-02-15T08:44:04;0.60;99.90
31837;DHT22;18401;49.344;6.240;2023-02-15T08:46:31;0.60;99.90
31837;DHT22;18401;49.344;6.240;2023-02-15T08:48:57;0.60;99.90
31837;DHT22;18401;49.344;6.240;2023-02-15T08:51:26;0.60;99.90
31837;DHT22;18401;49.344;6.240;2023-02-15T08:53:54;0.60;99.90
31837;DHT22;18401;49.344;6.240;2023-02-15T08:56:24;0.60;99.90
31837;DHT22;18401;49.344;6.240;2023-02-15T08:58:50;0.70;99.90
31837;DHT22;18401;49.344;6.240;2023-02-15T09:01:22;0.70;99.90
31837;DHT22;18401;49.344;6.240;2023-02-15T09:03:50;0.80;99.90
31837;DHT22;18401;49.344;6.240;2023-02-15T09:06:19;0.70;99.90
31837;DHT22;18401;49.344;6.240;2023-02-15T09:08:45;0.80;99.90
31837;DHT22;18401;49.344;6.240;2023-02-15T09:13:39;1.10;99.90
31837;DHT22;18401;49.344;6.240;2023-02-15T09:16:08;1.20;99.90
31837;DHT22;18401;49.344;6.240;2023-02-15T09:18:36;1.20;99.90
31837;DHT22;18401;49.344;6.240;2023-02-15T09:21:22;1.30;99.90
31837;DHT22;18401;49.344;6.240;2023-02-15T09:23:51;1.40;99.90
31837;DHT22;18401;49.344;6.240;2023-02-15T09:26:21;1.40;99.90
31837;DHT22;18401;49.344;6.240;2023-02-15T09:28:50;1.50;99.90
31837;DHT22;18401;49.344;6.240;2023-02-15T09:31:21;1.70;99.90
31837;DHT22;18401;49.344;6.240;2023-02-15T09:33:48;1.90;99.90
31837;DHT22;18401;49.344;6.240;2023-02-15T09:39:16;2.40;99.90
31837;DHT22;18401;49.344;6.240;2023-02-15T09:42:04;2.30;99.90
31837;DHT22;18401;49.344;6.240;2023-02-15T09:47:56;2.50;99.90
31837;DHT22;18401;49.344;6.240;2023-02-15T09:56:02;3.30;99.90
31837;DHT22;18401;49.344;6.240;2023-02-15T10:23:08;5.30;99.90
31837;DHT22;18401;49.344;6.240;2023-02-15T10:33:43;7.60;99.90
31837;DHT22;18401;49.344;6.240;2023-02-15T10:39:06;8.40;99.90
31837;DHT22;18401;49.344;6.240;2023-02-15T10:55:57;8.60;99.90
31837;DHT22;18401;49.344;6.240;2023-02-15T11:06:11;10.70;99.90
31837;DHT22;18401;49.344;6.240;2023-02-15T11:08:45;11.00;99.90
31837;DHT22;18401;49.344;6.240;2023-02-15T11:11:24;10.90;99.90
31837;DHT22;18401;49.344;6.240;2023-02-15T11:13:56;9.70;99.90
31837;DHT22;18401;49.344;6.240;2023-02-15T11:16:27;9.30;99.90
31837;DHT22;18401;49.344;6.240;2023-02-15T11:18:59;10.20;99.90
31837;DHT22;18401;49.344;6.240;2023-02-15T11:21:43;10.00;99.90
31837;DHT22;18401;49.344;6.240;2023-02-15T11:24:13;10.60;99.90
31837;DHT22;18401;49.344;6.240;2023-02-15T11:26:43;10.50;99.90
31837;DHT22;18401;49.344;6.240;2023-02-15T11:29:25;10.10;99.90
31837;DHT22;18401;49.344;6.240;2023-02-15T11:34:40;11.00;99.90
31837;DHT22;18401;49.344;6.240;2023-02-15T11:37:18;11.10;99.90
31837;DHT22;18401;49.344;6.240;2023-02-15T11:39:43;11.00;88.00
31837;DHT22;18401;49.344;6.240;2023-02-15T11:42:14;11.00;92.20
31837;DHT22;18401;49.344;6.240;2023-02-15T11:45:02;11.00;90.20
31837;DHT22;18401;49.344;6.240;2023-02-15T11:47:29;11.70;93.90
31837;DHT22;18401;49.344;6.240;2023-02-15T11:49:56;11.60;85.90
31837;DHT22;18401;49.344;6.240;2023-02-15T11:52:22;11.60;90.50
31837;DHT22;18401;49.344;6.240;2023-02-15T11:54:50;11.90;70.50
31837;DHT22;18401;49.344;6.240;2023-02-15T11:57:31;12.00;71.50
31837;DHT22;18401;49.344;6.240;2023-02-15T12:02:31;11.40;61.80
31837;DHT22;18401;49.344;6.240;2023-02-15T12:05:06;11.60;69.50
31837;DHT22;18401;49.344;6.240;2023-02-15T12:07:37;11.30;58.00
31837;DHT22;18401;49.344;6.240;2023-02-15T12:10:20;11.60;75.80
31837;DHT22;18401;49.344;6.240;2023-02-15T12:13:14;11.70;71.80
31837;DHT22;18401;49.344;6.240;2023-02-15T12:15:46;12.30;70.30
31837;DHT22;18401;49.344;6.240;2023-02-15T12:18:36;11.70;74.10
31837;DHT22;18401;49.344;6.240;2023-02-15T12:21:16;11.50;62.30
31837;DHT22;18401;49.344;6.240;2023-02-15T12:23:54;11.60;64.60
31837;DHT22;18401;49.344;6.240;2023-02-15T12:26:32;11.30;60.20
31837;DHT22;18401;49.344;6.240;2023-02-15T12:29:24;11.90;77.50
31837;DHT22;18401;49.344;6.240;2023-02-15T12:31:52;12.60;55.60
31837;DHT22;18401;49.344;6.240;2023-02-15T12:34:22;12.50;46.00
31837;DHT22;18401;49.344;6.240;2023-02-15T12:36:53;12.70;27.90
31837;DHT22;18401;49.344;6.240;2023-02-15T12:39:29;12.70;35.00
31837;DHT22;18401;49.344;6.240;2023-02-15T12:42:04;12.30;37.40
31837;DHT22;18401;49.344;6.240;2023-02-15T12:44:34;12.40;54.50
31837;DHT22;18401;49.344;6.240;2023-02-15T12:47:30;12.60;37.80
31837;DHT22;18401;49.344;6.240;2023-02-15T12:50:22;12.40;39.40
31837;DHT22;18401;49.344;6.240;2023-02-15T12:52:50;12.60;46.70
31837;DHT22;18401;49.344;6.240;2023-02-15T12:55:27;12.90;41.50
31837;DHT22;18401;49.344;6.240;2023-02-15T12:58:16;13.00;32.30
31837;DHT22;18401;49.344;6.240;2023-02-15T13:00:43;13.20;38.20
31837;DHT22;18401;49.344;6.240;2023-02-15T13:03:20;13.80;27.50
31837;DHT22;18401;49.344;6.240;2023-02-15T13:05:50;13.90;10.10
31837;DHT22;18401;49.344;6.240;2023-02-15T13:08:22;13.80;16.70
31837;DHT22;18401;49.344;6.240;2023-02-15T13:10:58;13.40;17.60
31837;DHT22;18401;49.344;6.240;2023-02-15T13:13:29;13.60;20.40
31837;DHT22;18401;49.344;6.240;2023-02-15T13:15:59;14.60;1.00
31837;DHT22;18401;49.344;6.240;2023-02-15T13:18:32;15.00;1.00
31837;DHT22;18401;49.344;6.240;2023-02-15T13:21:20;14.50;1.00
31837;DHT22;18401;49.344;6.240;2023-02-15T13:23:55;13.70;1.00
31837;DHT22;18401;49.344;6.240;2023-02-15T13:26:26;14.20;1.00
31837;DHT22;18401;49.344;6.240;2023-02-15T13:28:57;14.20;1.00
31837;DHT22;18401;49.344;6.240;2023-02-15T13:31:27;14.10;13.10
31837;DHT22;18401;49.344;6.240;2023-02-15T13:34:00;14.30;1.00
31837;DHT22;18401;49.344;6.240;2023-02-15T13:42:20;14.20;1.00
31837;DHT22;18401;49.344;6.240;2023-02-15T13:53:58;13.50;2.70
31837;DHT22;18401;49.344;6.240;2023-02-15T13:56:48;14.20;7.30
31837;DHT22;18401;49.344;6.240;2023-02-15T13:59:27;13.40;5.70
31837;DHT22;18401;49.344;6.240;2023-02-15T14:01:58;13.70;5.00
31837;DHT22;18401;49.344;6.240;2023-02-15T14:04:47;13.30;8.20
31837;DHT22;18401;49.344;6.240;2023-02-15T14:07:49;13.90;1.00
31837;DHT22;18401;49.344;6.240;2023-02-15T14:10:23;14.70;1.00
31837;DHT22;18401;49.344;6.240;2023-02-15T14:15:56;14.50;1.00
31837;DHT22;18401;49.344;6.240;2023-02-15T14:21:26;14.60;1.00
31837;DHT22;18401;49.344;6.240;2023-02-15T14:32:11;15.30;1.00
31837;DHT22;18401;49.344;6.240;2023-02-15T14:34:46;15.40;1.00
31837;DHT22;18401;49.344;6.240;2023-02-15T14:37:18;15.30;1.00
31837;DHT22;18401;49.344;6.240;2023-02-15T14:40:00;14.70;1.00
31837;DHT22;18401;49.344;6.240;2023-02-15T14:43:04;14.30;1.00
31837;DHT22;18401;49.344;6.240;2023-02-15T14:45:38;14.60;1.00
31837;DHT22;18401;49.344;6.240;2023-02-15T14:50:44;14.70;1.00
31837;DHT22;18401;49.344;6.240;2023-02-15T15:01:15;14.40;1.00
31837;DHT22;18401;49.344;6.240;2023-02-15T15:03:51;14.30;1.00
31837;DHT22;18401;49.344;6.240;2023-02-15T15:06:30;14.10;1.00
31837;DHT22;18401;49.344;6.240;2023-02-15T15:09:09;13.90;1.00
31837;DHT22;18401;49.344;6.240;2023-02-15T15:11:39;14.00;1.00
31837;DHT22;18401;49.344;6.240;2023-02-15T15:14:05;13.90;1.00
31837;DHT22;18401;49.344;6.240;2023-02-15T15:16:48;13.50;1.00
31837;DHT22;18401;49.344;6.240;2023-02-15T15:22:25;13.20;7.10
31837;DHT22;18401;49.344;6.240;2023-02-15T15:25:02;13.20;2.70
31837;DHT22;18401;49.344;6.240;2023-02-15T15:27:46;13.10;1.80
31837;DHT22;18401;49.344;6.240;2023-02-15T15:33:13;12.80;16.30
31837;DHT22;18401;49.344;6.240;2023-02-15T15:38:54;13.40;27.00
31837;DHT22;18401;49.344;6.240;2023-02-15T15:41:43;13.00;41.70
31837;DHT22;18401;49.344;6.240;2023-02-15T15:47:10;12.40;56.00
31837;DHT22;18401;49.344;6.240;2023-02-15T15:49:38;12.10;61.60
31837;DHT22;18401;49.344;6.240;2023-02-15T15:52:20;11.80;58.40
31837;DHT22;18401;49.344;6.240;2023-02-15T15:54:53;11.50;60.60
31837;DHT22;18401;49.344;6.240;2023-02-15T15:57:27;11.30;60.90
31837;DHT22;18401;49.344;6.240;2023-02-15T15:59:54;11.20;69.50
31837;DHT22;18401;49.344;6.240;2023-02-15T16:02:20;11.30;68.30
31837;DHT22;18401;49.344;6.240;2023-02-15T16:04:46;11.30;69.00
31837;DHT22;18401;49.344;6.240;2023-02-15T16:10:03;11.10;74.20
31837;DHT22;18401;49.344;6.240;2023-02-15T16:12:30;10.80;80.30
31837;DHT22;18401;49.344;6.240;2023-02-15T16:14:56;10.60;83.70
31837;DHT22;18401;49.344;6.240;2023-02-15T16:17:24;10.40;87.80
31837;DHT22;18401;49.344;6.240;2023-02-15T16:19:51;10.00;91.00
31837;DHT22;18401;49.344;6.240;2023-02-15T16:22:25;9.60;94.90
31837;DHT22;18401;49.344;6.240;2023-02-15T16:25:22;9.20;97.70
31837;DHT22;18401;49.344;6.240;2023-02-15T16:27:51;8.90;99.90
31837;DHT22;18401;49.344;6.240;2023-02-15T16:30:19;8.40;99.90
31837;DHT22;18401;49.344;6.240;2023-02-15T16:32:45;8.10;99.90
31837;DHT22;18401;49.344;6.240;2023-02-15T16:35:16;7.90;99.90
31837;DHT22;18401;49.344;6.240;2023-02-15T16:37:42;7.70;99.90
31837;DHT22;18401;49.344;6.240;2023-02-15T16:42:54;6.90;99.90
31837;DHT22;18401;49.344;6.240;2023-02-15T16:45:24;6.50;99.90
31837;DHT22;18401;49.344;6.240;2023-02-15T16:47:54;6.10;99.90
31837;DHT22;18401;49.344;6.240;2023-02-15T16:50:27;5.70;99.90
31837;DHT22;18401;49.344;6.240;2023-02-15T16:52:54;5.40;99.90
31837;DHT22;18401;49.344;6.240;2023-02-15T16:55:26;5.30;99.90
31837;DHT22;18401;49.344;6.240;2023-02-15T16:57:58;5.00;99.90
31837;DHT22;18401;49.344;6.240;2023-02-15T17:00:28;4.70;99.90
31837;DHT22;18401;49.344;6.240;2023-02-15T17:02:59;4.50;99.90
31837;DHT22;18401;49.344;6.240;2023-02-15T17:05:53;4.60;99.90
31837;DHT22;18401;49.344;6.240;2023-02-15T17:08:31;4.50;99.90
31837;DHT22;18401;49.344;6.240;2023-02-15T17:11:11;4.40;99.90
31837;DHT22;18401;49.344;6.240;2023-02-15T17:13:38;4.30;99.90
31837;DHT22;18401;49.344;6.240;2023-02-15T17:18:43;3.90;99.90
31837;DHT22;18401;49.344;6.240;2023-02-15T17:21:19;3.70;99.90
31837;DHT22;18401;49.344;6.240;2023-02-15T17:23:46;3.60;99.90
31837;DHT22;18401;49.344;6.240;2023-02-15T17:26:19;3.40;99.90
31837;DHT22;18401;49.344;6.240;2023-02-15T17:31:32;3.10;99.90
31837;DHT22;18401;49.344;6.240;2023-02-15T17:33:59;3.00;99.90
31837;DHT22;18401;49.344;6.240;2023-02-15T17:36:28;2.80;99.90
31837;DHT22;18401;49.344;6.240;2023-02-15T17:41:32;2.80;99.90
31837;DHT22;18401;49.344;6.240;2023-02-15T17:44:00;2.70;99.90
31837;DHT22;18401;49.344;6.240;2023-02-15T17:46:27;2.60;99.90
31837;DHT22;18401;49.344;6.240;2023-02-15T17:48:55;2.70;99.90
31837;DHT22;18401;49.344;6.240;2023-02-15T17:51:21;2.70;99.90
31837;DHT22;18401;49.344;6.240;2023-02-15T17:53:48;2.80;99.90
31837;DHT22;18401;49.344;6.240;2023-02-15T17:56:33;2.80;99.90
31837;DHT22;18401;49.344;6.240;2023-02-15T17:58:59;2.90;99.90
31837;DHT22;18401;49.344;6.240;2023-02-15T18:01:24;2.80;99.90
31837;DHT22;18401;49.344;6.240;2023-02-15T18:04:11;2.80;99.90
31837;DHT22;18401;49.344;6.240;2023-02-15T18:06:56;3.00;99.90
31837;DHT22;18401;49.344;6.240;2023-02-15T18:09:40;3.00;99.90
31837;DHT22;18401;49.344;6.240;2023-02-15T18:12:32;3.10;99.90
31837;DHT22;18401;49.344;6.240;2023-02-15T18:14:58;3.20;99.90
31837;DHT22;18401;49.344;6.240;2023-02-15T18:17:45;3.20;99.90
31837;DHT22;18401;49.344;6.240;2023-02-15T18:20:33;3.20;99.90
31837;DHT22;18401;49.344;6.240;2023-02-15T18:23:01;2.90;99.90
31837;DHT22;18401;49.344;6.240;2023-02-15T18:25:27;2.70;99.90
31837;DHT22;18401;49.344;6.240;2023-02-15T18:27:53;2.70;99.90
31837;DHT22;18401;49.344;6.240;2023-02-15T18:30:21;2.50;99.90
31837;DHT22;18401;49.344;6.240;2023-02-15T18:32:49;2.30;99.90
31837;DHT22;18401;49.344;6.240;2023-02-15T18:35:18;2.00;99.90
31837;DHT22;18401;49.344;6.240;2023-02-15T18:37:44;1.80;99.90
31837;DHT22;18401;49.344;6.240;2023-02-15T18:40:18;1.60;99.90
31837;DHT22;18401;49.344;6.240;2023-02-15T18:42:45;1.40;99.90
31837;DHT22;18401;49.344;6.240;2023-02-15T18:45:16;1.30;99.90
31837;DHT22;18401;49.344;6.240;2023-02-15T18:47:44;1.20;99.90
31837;DHT22;18401;49.344;6.240;2023-02-15T18:50:14;1.20;99.90
31837;DHT22;18401;49.344;6.240;2023-02-15T18:52:40;1.30;99.90
31837;DHT22;18401;49.344;6.240;2023-02-15T18:55:18;1.30;99.90
31837;DHT22;18401;49.344;6.240;2023-02-15T18:57:49;1.20;99.90